createdAt,value
2016-02-15T00:00:15.128Z,950.62
2016-02-15T00:01:15.115Z,950.66
2016-02-15T00:02:15.118Z,950.69
2016-02-15T00:03:15.121Z,950.66
2016-02-15T00:04:15.123Z,950.65
2016-02-15T00:05:15.125Z,950.66
2016-02-15T00:06:15.113Z,950.63
2016-02-15T00:07:15.115Z,950.69
2016-02-15T00:08:15.118Z,950.67
2016-02-15T00:09:15.121Z,950.66
2016-02-15T00:10:15.123Z,950.71
2016-02-15T00:11:15.111Z,950.74
2016-02-15T00:12:15.114Z,950.73
2016-02-15T00:13:15.116Z,950.74
2016-02-15T00:14:15.119Z,950.8
2016-02-15T00:15:15.106Z,950.79
2016-02-15T00:16:15.109Z,950.76
2016-02-15T00:17:15.111Z,950.74
2016-02-15T00:18:15.114Z,950.75
2016-02-15T00:19:15.116Z,950.77
2016-02-15T00:20:15.120Z,950.81
2016-02-15T00:21:15.106Z,950.8
2016-02-15T00:22:15.108Z,950.8
2016-02-15T00:23:15.096Z,950.8
2016-02-15T00:24:15.114Z,950.82
2016-02-15T00:25:15.102Z,950.86
2016-02-15T00:26:15.104Z,950.86
2016-02-15T00:27:15.107Z,950.9
2016-02-15T00:28:15.110Z,950.92
2016-02-15T00:29:15.127Z,950.91
2016-02-15T00:30:15.099Z,950.89
2016-02-15T00:31:15.102Z,950.85
2016-02-15T00:32:15.088Z,950.86
2016-02-15T00:33:15.092Z,950.91
2016-02-15T00:34:15.094Z,950.92
2016-02-15T00:35:15.096Z,950.93
2016-02-15T00:36:15.085Z,950.96
2016-02-15T00:37:15.087Z,950.94
2016-02-15T00:38:15.089Z,950.96
2016-02-15T00:39:15.092Z,950.97
2016-02-15T00:40:15.079Z,950.96
2016-02-15T00:41:15.098Z,950.94
2016-02-15T00:42:15.084Z,950.97
2016-02-15T00:43:15.087Z,950.99
2016-02-15T00:44:15.090Z,950.99
2016-02-15T00:45:15.078Z,950.97
2016-02-15T00:46:15.080Z,950.99
2016-02-15T00:47:15.082Z,951.04
2016-02-15T00:48:15.086Z,950.99
2016-02-15T00:49:15.072Z,951.01
2016-02-15T00:50:15.075Z,951.05
2016-02-15T00:51:15.078Z,951.06
2016-02-15T00:52:15.080Z,951.07
2016-02-15T00:53:15.067Z,951.09
2016-02-15T00:54:15.070Z,951.11
2016-02-15T00:55:15.072Z,951.12
2016-02-15T00:56:15.075Z,951.11
2016-02-15T00:57:15.063Z,951.13
2016-02-15T00:58:15.066Z,951.1
2016-02-15T00:59:15.068Z,951.15
2016-02-15T01:00:15.070Z,951.13
2016-02-15T01:01:15.074Z,951.16
2016-02-15T01:02:15.060Z,951.13
2016-02-15T01:03:15.062Z,951.14
2016-02-15T01:04:15.065Z,951.13
2016-02-15T01:05:15.068Z,951.13
2016-02-15T01:06:15.055Z,951.14
2016-02-15T01:07:15.058Z,951.14
2016-02-15T01:08:15.060Z,951.17
2016-02-15T01:09:15.063Z,951.19
2016-02-15T01:10:15.051Z,951.19
2016-02-15T01:11:15.053Z,951.23
2016-02-15T01:12:15.069Z,951.2
2016-02-15T01:13:15.047Z,951.22
2016-02-15T01:14:15.022Z,951.23
2016-02-15T01:15:15.014Z,951.24
2016-02-15T01:16:15.005Z,951.28
2016-02-15T01:17:14.997Z,951.29
2016-02-15T01:18:14.981Z,951.28
2016-02-15T01:19:14.979Z,951.31
2016-02-15T01:20:14.977Z,951.36
2016-02-15T01:21:14.976Z,951.31
2016-02-15T01:22:14.959Z,951.34
2016-02-15T01:23:14.960Z,951.33
2016-02-15T01:24:14.962Z,951.28
2016-02-15T01:25:14.962Z,951.31
2016-02-15T01:26:14.963Z,951.31
2016-02-15T01:27:14.949Z,951.3
2016-02-15T01:28:14.951Z,951.32
2016-02-15T01:29:14.953Z,951.33
2016-02-15T01:30:14.956Z,951.3
2016-02-15T01:31:14.958Z,951.29
2016-02-15T01:32:14.946Z,951.24
2016-02-15T01:33:14.948Z,951.26
2016-02-15T01:34:14.950Z,951.3
2016-02-15T01:35:14.938Z,951.31
2016-02-15T01:36:14.940Z,951.3
2016-02-15T01:37:14.942Z,951.33
2016-02-15T01:38:14.946Z,951.33
2016-02-15T01:39:14.948Z,951.29
2016-02-15T01:40:14.935Z,951.36
2016-02-15T01:41:14.938Z,951.37
2016-02-15T01:42:14.940Z,951.36
2016-02-15T01:43:14.943Z,951.41
2016-02-15T01:44:14.931Z,951.4
2016-02-15T01:45:14.948Z,951.44
2016-02-15T01:46:14.936Z,951.46
2016-02-15T01:47:14.939Z,951.47
2016-02-15T01:48:14.941Z,951.49
2016-02-15T01:49:14.929Z,951.52
2016-02-15T01:50:14.931Z,951.52
2016-02-15T01:51:14.933Z,951.49
2016-02-15T01:52:14.921Z,951.56
2016-02-15T01:53:14.924Z,951.57
2016-02-15T01:54:14.926Z,951.57
2016-02-15T01:55:14.929Z,951.61
2016-02-15T01:56:14.932Z,951.6
2016-02-15T01:57:14.918Z,951.6
2016-02-15T01:58:14.922Z,951.59
2016-02-15T01:59:14.940Z,951.59
2016-02-15T02:00:14.926Z,951.62
2016-02-15T02:01:14.914Z,951.66
2016-02-15T02:02:14.916Z,951.62
2016-02-15T02:03:14.918Z,951.64
2016-02-15T02:04:14.922Z,951.66
2016-02-15T02:05:14.909Z,951.64
2016-02-15T02:06:14.912Z,951.66
2016-02-15T02:07:14.915Z,951.68
2016-02-15T02:08:14.917Z,951.7
2016-02-15T02:09:14.904Z,951.65
2016-02-15T02:10:14.907Z,951.69
2016-02-15T02:11:14.909Z,951.68
2016-02-15T02:12:14.912Z,951.66
2016-02-15T02:13:14.915Z,951.72
2016-02-15T02:14:14.901Z,951.76
2016-02-15T02:15:14.904Z,951.74
2016-02-15T02:16:14.907Z,951.73
2016-02-15T02:17:14.909Z,951.73
2016-02-15T02:18:14.912Z,951.75
2016-02-15T02:19:14.900Z,951.78
2016-02-15T02:20:14.933Z,951.81
2016-02-15T02:21:14.905Z,951.89
2016-02-15T02:22:14.892Z,951.89
2016-02-15T02:23:14.895Z,951.94
2016-02-15T02:24:14.897Z,951.93
2016-02-15T02:25:14.900Z,951.94
2016-02-15T02:26:14.902Z,951.91
2016-02-15T02:27:14.891Z,951.93
2016-02-15T02:28:14.893Z,951.95
2016-02-15T02:29:14.895Z,951.93
2016-02-15T02:30:14.899Z,951.99
2016-02-15T02:31:14.885Z,951.98
2016-02-15T02:32:14.888Z,952.01
2016-02-15T02:33:14.890Z,952.03
2016-02-15T02:34:14.877Z,952.04
2016-02-15T02:35:14.880Z,952.04
2016-02-15T02:36:14.883Z,952.04
2016-02-15T02:37:14.885Z,952.06
2016-02-15T02:38:14.888Z,952.09
2016-02-15T02:39:14.891Z,952.07
2016-02-15T02:40:14.878Z,952.1
2016-02-15T02:41:14.881Z,952.09
2016-02-15T02:42:14.884Z,952.12
2016-02-15T02:43:14.870Z,952.15
2016-02-15T02:44:14.873Z,952.15
2016-02-15T02:45:14.876Z,952.2
2016-02-15T02:46:14.878Z,952.18
2016-02-15T02:47:14.881Z,952.24
2016-02-15T02:48:14.868Z,952.21
2016-02-15T02:49:14.871Z,952.2
2016-02-15T02:50:14.873Z,952.21
2016-02-15T02:51:14.861Z,952.26
2016-02-15T02:52:14.863Z,952.26
2016-02-15T02:53:14.866Z,952.29
2016-02-15T02:54:14.869Z,952.29
2016-02-15T02:55:14.871Z,952.29
2016-02-15T02:56:14.874Z,952.26
2016-02-15T02:57:14.861Z,952.35
2016-02-15T02:58:14.864Z,952.35
2016-02-15T02:59:14.866Z,952.37
2016-02-15T03:00:14.854Z,952.36
2016-02-15T03:01:14.857Z,952.31
2016-02-15T03:02:14.859Z,952.32
2016-02-15T03:03:14.862Z,952.32
2016-02-15T03:04:14.879Z,952.35
2016-02-15T03:05:14.852Z,952.35
2016-02-15T03:06:14.854Z,952.36
2016-02-15T03:07:14.857Z,952.41
2016-02-15T03:08:14.844Z,952.42
2016-02-15T03:09:14.846Z,952.42
2016-02-15T03:10:14.849Z,952.41
2016-02-15T03:11:14.852Z,952.47
2016-02-15T03:12:14.839Z,952.49
2016-02-15T03:13:14.842Z,952.53
2016-02-15T03:14:14.844Z,952.58
2016-02-15T03:15:14.848Z,952.6
2016-02-15T03:16:14.834Z,952.63
2016-02-15T03:17:14.853Z,952.62
2016-02-15T03:18:14.839Z,952.65
2016-02-15T03:19:14.842Z,952.64
2016-02-15T03:20:14.845Z,952.71
2016-02-15T03:21:14.831Z,952.69
2016-02-15T03:22:14.850Z,952.71
2016-02-15T03:23:14.837Z,952.72
2016-02-15T03:24:14.840Z,952.74
2016-02-15T03:25:14.827Z,952.74
2016-02-15T03:26:14.830Z,952.76
2016-02-15T03:27:14.833Z,952.8
2016-02-15T03:28:14.836Z,952.82
2016-02-15T03:29:14.822Z,952.8
2016-02-15T03:30:14.824Z,952.81
2016-02-15T03:31:14.828Z,952.77
2016-02-15T03:32:14.830Z,952.78
2016-02-15T03:33:14.833Z,952.83
2016-02-15T03:34:14.820Z,952.81
2016-02-15T03:35:14.823Z,952.83
2016-02-15T03:36:14.810Z,952.88
2016-02-15T03:37:14.812Z,952.91
2016-02-15T03:38:14.815Z,952.87
2016-02-15T03:39:14.834Z,952.9
2016-02-15T03:40:14.821Z,952.86
2016-02-15T03:41:14.807Z,952.88
2016-02-15T03:42:14.810Z,952.92
2016-02-15T03:43:14.813Z,952.94
2016-02-15T03:44:14.815Z,952.94
2016-02-15T03:45:14.818Z,952.96
2016-02-15T03:46:14.806Z,952.95
2016-02-15T03:47:14.808Z,952.99
2016-02-15T03:48:14.811Z,952.98
2016-02-15T03:49:14.798Z,953.02
2016-02-15T03:50:14.801Z,953.04
2016-02-15T03:51:14.803Z,953.05
2016-02-15T03:52:14.806Z,953.03
2016-02-15T03:53:14.793Z,953.05
2016-02-15T03:54:14.796Z,953.07
2016-02-15T03:55:14.798Z,953.09
2016-02-15T03:56:14.800Z,953.1
2016-02-15T03:57:14.803Z,953.08
2016-02-15T03:58:14.791Z,953.07
2016-02-15T03:59:14.825Z,953.13
2016-02-15T04:00:14.796Z,953.17
2016-02-15T04:01:14.799Z,953.15
2016-02-15T04:02:14.786Z,953.14
2016-02-15T04:03:14.789Z,953.16
2016-02-15T04:04:14.791Z,953.17
2016-02-15T04:05:14.793Z,953.2
2016-02-15T04:06:14.782Z,953.22
2016-02-15T04:07:14.784Z,953.22
2016-02-15T04:08:14.787Z,953.27
2016-02-15T04:09:14.790Z,953.25
2016-02-15T04:10:14.776Z,953.3
2016-02-15T04:11:14.779Z,953.28
2016-02-15T04:12:14.782Z,953.28
2016-02-15T04:13:14.784Z,953.3
2016-02-15T04:14:14.771Z,953.29
2016-02-15T04:15:14.774Z,953.33
2016-02-15T04:16:14.776Z,953.38
2016-02-15T04:17:14.779Z,953.37
2016-02-15T04:18:14.767Z,953.38
2016-02-15T04:19:14.769Z,953.41
2016-02-15T04:20:14.772Z,953.41
2016-02-15T04:21:14.759Z,953.41
2016-02-15T04:22:14.761Z,953.44
2016-02-15T04:23:14.764Z,953.45
2016-02-15T04:24:14.767Z,953.43
2016-02-15T04:25:14.769Z,953.44
2016-02-15T04:26:14.757Z,953.49
2016-02-15T04:27:14.759Z,953.46
2016-02-15T04:28:14.761Z,953.49
2016-02-15T04:29:14.765Z,953.48
2016-02-15T04:30:14.752Z,953.51
2016-02-15T04:31:14.754Z,953.5
2016-02-15T04:32:14.758Z,953.52
2016-02-15T04:33:14.744Z,953.49
2016-02-15T04:34:14.747Z,953.51
2016-02-15T04:35:14.749Z,953.51
2016-02-15T04:36:14.752Z,953.56
2016-02-15T04:37:14.754Z,953.57
2016-02-15T04:38:14.743Z,953.54
2016-02-15T04:39:14.745Z,953.55
2016-02-15T04:40:14.747Z,953.55
2016-02-15T04:41:14.751Z,953.55
2016-02-15T04:42:14.737Z,953.54
2016-02-15T04:43:14.740Z,953.52
2016-02-15T04:44:14.743Z,953.55
2016-02-15T04:45:14.745Z,953.52
2016-02-15T04:46:14.732Z,953.5
2016-02-15T04:47:14.735Z,953.46
2016-02-15T04:48:14.737Z,953.49
2016-02-15T04:49:14.740Z,953.47
2016-02-15T04:50:14.743Z,953.49
2016-02-15T04:51:14.730Z,953.52
2016-02-15T04:52:14.734Z,953.53
2016-02-15T04:53:14.736Z,953.59
2016-02-15T04:54:14.738Z,953.6
2016-02-15T04:55:14.726Z,953.62
2016-02-15T04:56:14.728Z,953.67
2016-02-15T04:57:14.730Z,953.69
2016-02-15T04:58:14.733Z,953.69
2016-02-15T04:59:14.720Z,953.72
2016-02-15T05:00:14.722Z,953.75
2016-02-15T05:01:14.726Z,953.73
2016-02-15T05:02:14.728Z,953.76
2016-02-15T05:03:14.730Z,953.73
2016-02-15T05:04:14.719Z,953.74
2016-02-15T05:05:14.721Z,953.71
2016-02-15T05:06:14.723Z,953.73
2016-02-15T05:07:14.727Z,953.72
2016-02-15T05:08:14.713Z,953.77
2016-02-15T05:09:14.716Z,953.74
2016-02-15T05:10:14.719Z,953.74
2016-02-15T05:11:14.707Z,953.74
2016-02-15T05:12:14.709Z,953.72
2016-02-15T05:13:14.712Z,953.74
2016-02-15T05:14:14.714Z,953.73
2016-02-15T05:15:14.717Z,953.69
2016-02-15T05:16:14.704Z,953.69
2016-02-15T05:17:14.706Z,953.63
2016-02-15T05:18:14.709Z,953.62
2016-02-15T05:19:14.712Z,953.64
2016-02-15T05:20:14.698Z,953.63
2016-02-15T05:21:14.701Z,953.65
2016-02-15T05:22:14.704Z,953.63
2016-02-15T05:23:14.706Z,953.67
2016-02-15T05:24:14.694Z,953.69
2016-02-15T05:25:14.712Z,953.73
2016-02-15T05:26:14.699Z,953.75
2016-02-15T05:27:14.703Z,953.73
2016-02-15T05:28:14.705Z,953.74
2016-02-15T05:29:14.691Z,953.72
2016-02-15T05:30:14.695Z,953.77
2016-02-15T05:31:14.697Z,953.77
2016-02-15T05:32:14.684Z,953.78
2016-02-15T05:33:14.686Z,953.83
2016-02-15T05:34:14.689Z,953.82
2016-02-15T05:35:14.692Z,953.81
2016-02-15T05:36:14.680Z,953.87
2016-02-15T05:37:14.682Z,953.89
2016-02-15T05:38:14.684Z,953.94
2016-02-15T05:39:14.688Z,953.97
2016-02-15T05:40:14.690Z,954.01
2016-02-15T05:41:14.676Z,954.03
2016-02-15T05:42:14.679Z,954.08
2016-02-15T05:43:14.682Z,954.11
2016-02-15T05:44:14.670Z,954.14
2016-02-15T05:45:14.673Z,954.17
2016-02-15T05:46:14.675Z,954.19
2016-02-15T05:47:14.678Z,954.22
2016-02-15T05:48:14.681Z,954.24
2016-02-15T05:49:14.667Z,954.28
2016-02-15T05:50:14.670Z,954.29
2016-02-15T05:51:14.673Z,954.32
2016-02-15T05:52:14.676Z,954.33
2016-02-15T05:53:14.678Z,954.33
2016-02-15T05:54:14.665Z,954.36
2016-02-15T05:55:14.668Z,954.4
2016-02-15T05:56:14.670Z,954.38
2016-02-15T05:57:14.658Z,954.42
2016-02-15T05:58:14.661Z,954.41
2016-02-15T05:59:14.663Z,954.45
2016-02-15T06:00:14.666Z,954.46
2016-02-15T06:01:14.652Z,954.5
2016-02-15T06:02:14.656Z,954.48
2016-02-15T06:03:14.658Z,954.54
2016-02-15T06:04:14.661Z,954.56
2016-02-15T06:05:14.663Z,954.58
2016-02-15T06:06:14.650Z,954.58
2016-02-15T06:07:14.653Z,954.61
2016-02-15T06:08:14.655Z,954.64
2016-02-15T06:09:14.643Z,954.68
2016-02-15T06:10:14.646Z,954.68
2016-02-15T06:11:14.649Z,954.7
2016-02-15T06:12:14.651Z,954.72
2016-02-15T06:13:14.654Z,954.74
2016-02-15T06:14:14.656Z,954.77
2016-02-15T06:15:14.644Z,954.81
2016-02-15T06:16:14.646Z,954.87
2016-02-15T06:17:14.648Z,954.84
2016-02-15T06:18:14.637Z,954.84
2016-02-15T06:19:14.639Z,954.89
2016-02-15T06:20:14.642Z,954.86
2016-02-15T06:21:14.628Z,954.89
2016-02-15T06:22:14.631Z,954.92
2016-02-15T06:23:14.634Z,954.91
2016-02-15T06:24:14.637Z,954.9
2016-02-15T06:25:14.639Z,954.93
2016-02-15T06:26:14.641Z,954.91
2016-02-15T06:27:14.629Z,954.92
2016-02-15T06:28:14.631Z,954.92
2016-02-15T06:29:14.634Z,954.94
2016-02-15T06:30:14.637Z,954.89
2016-02-15T06:31:14.639Z,954.9
2016-02-15T06:32:14.627Z,954.92
2016-02-15T06:33:14.630Z,954.91
2016-02-15T06:34:14.632Z,954.91
2016-02-15T06:35:14.635Z,954.92
2016-02-15T06:36:14.622Z,954.95
2016-02-15T06:37:14.624Z,954.96
2016-02-15T06:38:14.628Z,954.95
2016-02-15T06:39:14.614Z,954.97
2016-02-15T06:40:14.616Z,954.99
2016-02-15T06:41:14.620Z,954.96
2016-02-15T06:42:14.622Z,954.95
2016-02-15T06:43:14.624Z,954.99
2016-02-15T06:44:14.612Z,955.01
2016-02-15T06:45:14.615Z,954.98
2016-02-15T06:46:14.617Z,955.01
2016-02-15T06:47:14.605Z,955.02
2016-02-15T06:48:14.607Z,955.02
2016-02-15T06:49:14.609Z,955.08
2016-02-15T06:50:14.613Z,955.01
2016-02-15T06:51:14.615Z,955.07
2016-02-15T06:52:14.602Z,955.08
2016-02-15T06:53:14.621Z,955.13
2016-02-15T06:54:14.608Z,955.13
2016-02-15T06:55:14.611Z,955.16
2016-02-15T06:56:14.598Z,955.16
2016-02-15T06:57:14.600Z,955.17
2016-02-15T06:58:14.603Z,955.17
2016-02-15T06:59:14.606Z,955.18
2016-02-15T07:00:14.592Z,955.18
2016-02-15T07:01:14.595Z,955.18
2016-02-15T07:02:14.598Z,955.18
2016-02-15T07:03:14.600Z,955.21
2016-02-15T07:04:14.603Z,955.27
2016-02-15T07:05:14.591Z,955.28
2016-02-15T07:06:14.593Z,955.26
2016-02-15T07:07:14.596Z,955.24
2016-02-15T07:08:14.599Z,955.28
2016-02-15T07:09:14.585Z,955.24
2016-02-15T07:10:14.588Z,955.28
2016-02-15T07:11:14.591Z,955.25
2016-02-15T07:12:14.593Z,955.26
2016-02-15T07:13:14.581Z,955.26
2016-02-15T07:14:14.583Z,955.26
2016-02-15T07:15:14.585Z,955.29
2016-02-15T07:16:14.574Z,955.28
2016-02-15T07:17:14.591Z,955.28
2016-02-15T07:18:14.579Z,955.32
2016-02-15T07:19:14.581Z,955.35
2016-02-15T07:20:14.584Z,955.4
2016-02-15T07:21:14.571Z,955.42
2016-02-15T07:22:14.574Z,955.43
2016-02-15T07:23:14.577Z,955.48
2016-02-15T07:24:14.578Z,955.5
2016-02-15T07:25:14.582Z,955.51
2016-02-15T07:26:14.584Z,955.52
2016-02-15T07:27:14.571Z,955.53
2016-02-15T07:28:14.574Z,955.54
2016-02-15T07:29:14.577Z,955.53
2016-02-15T07:30:14.564Z,955.52
2016-02-15T07:31:14.567Z,955.56
2016-02-15T07:32:14.569Z,955.57
2016-02-15T07:33:14.572Z,955.6
2016-02-15T07:34:14.559Z,955.6
2016-02-15T07:35:14.561Z,955.66
2016-02-15T07:36:14.564Z,955.63
2016-02-15T07:37:14.567Z,955.64
2016-02-15T07:38:14.554Z,955.65
2016-02-15T07:39:14.558Z,955.7
2016-02-15T07:40:14.560Z,955.72
2016-02-15T07:41:14.563Z,955.71
2016-02-15T07:42:14.565Z,955.77
2016-02-15T07:43:14.568Z,955.81
2016-02-15T07:44:14.555Z,955.78
2016-02-15T07:45:14.557Z,955.8
2016-02-15T07:46:14.560Z,955.84
2016-02-15T07:47:14.562Z,955.84
2016-02-15T07:48:14.550Z,955.88
2016-02-15T07:49:14.552Z,955.94
2016-02-15T07:50:14.555Z,955.95
2016-02-15T07:51:14.557Z,955.98
2016-02-15T07:52:14.545Z,956.01
2016-02-15T07:53:14.548Z,956.02
2016-02-15T07:54:14.550Z,956.01
2016-02-15T07:55:14.553Z,956.04
2016-02-15T07:56:14.540Z,956.05
2016-02-15T07:57:14.543Z,956.09
2016-02-15T07:58:14.561Z,956.07
2016-02-15T07:59:14.548Z,956.07
2016-02-15T08:00:14.551Z,956.08
2016-02-15T08:01:14.538Z,956.07
2016-02-15T08:02:14.541Z,956.04
2016-02-15T08:03:14.544Z,956.1
2016-02-15T08:04:14.547Z,956.13
2016-02-15T08:05:14.533Z,956.15
2016-02-15T08:06:14.536Z,956.19
2016-02-15T08:07:14.538Z,956.21
2016-02-15T08:08:14.541Z,956.23
2016-02-15T08:09:14.544Z,956.27
2016-02-15T08:10:14.530Z,956.29
2016-02-15T08:11:14.533Z,956.3
2016-02-15T08:12:14.536Z,956.29
2016-02-15T08:13:14.539Z,956.26
2016-02-15T08:14:14.542Z,956.3
2016-02-15T08:15:14.529Z,956.29
2016-02-15T08:16:14.531Z,956.34
2016-02-15T08:17:14.535Z,956.36
2016-02-15T08:18:14.537Z,956.37
2016-02-15T08:19:14.524Z,956.4
2016-02-15T08:20:14.526Z,956.38
2016-02-15T08:21:14.529Z,956.41
2016-02-15T08:22:14.532Z,956.45
2016-02-15T08:23:14.535Z,956.49
2016-02-15T08:24:14.521Z,956.46
2016-02-15T08:25:14.523Z,956.5
2016-02-15T08:26:14.527Z,956.53
2016-02-15T08:27:14.529Z,956.57
2016-02-15T08:28:14.531Z,956.6
2016-02-15T08:29:14.520Z,956.61
2016-02-15T08:30:14.522Z,956.65
2016-02-15T08:31:14.525Z,956.62
2016-02-15T08:32:14.527Z,956.63
2016-02-15T08:33:14.514Z,956.63
2016-02-15T08:34:14.517Z,956.68
2016-02-15T08:35:14.520Z,956.69
2016-02-15T08:36:14.523Z,956.72
2016-02-15T08:37:14.525Z,956.75
2016-02-15T08:38:14.558Z,956.74
2016-02-15T08:39:14.515Z,956.75
2016-02-15T08:40:14.519Z,956.75
2016-02-15T08:41:14.521Z,956.78
2016-02-15T08:42:14.523Z,956.78
2016-02-15T08:43:14.511Z,956.79
2016-02-15T08:44:14.513Z,956.81
2016-02-15T08:45:14.516Z,956.82
2016-02-15T08:46:14.518Z,956.85
2016-02-15T08:47:14.521Z,956.85
2016-02-15T08:48:14.507Z,956.87
2016-02-15T08:49:14.511Z,956.92
2016-02-15T08:50:14.529Z,956.88
2016-02-15T08:51:14.531Z,956.92
2016-02-15T08:52:14.519Z,956.96
2016-02-15T08:53:14.521Z,956.97
2016-02-15T08:54:14.508Z,956.96
2016-02-15T08:55:14.512Z,957.01
2016-02-15T08:56:14.514Z,957.03
2016-02-15T08:57:14.517Z,957.05
2016-02-15T08:58:14.520Z,957.05
2016-02-15T08:59:14.522Z,957.11
2016-02-15T09:00:14.525Z,957.09
2016-02-15T09:01:14.512Z,957.16
2016-02-15T09:02:14.514Z,957.14
2016-02-15T09:03:14.517Z,957.16
2016-02-15T09:04:14.519Z,957.21
2016-02-15T09:05:14.507Z,957.19
2016-02-15T09:06:14.509Z,957.24
2016-02-15T09:07:14.512Z,957.25
2016-02-15T09:08:14.514Z,957.24
2016-02-15T09:09:14.517Z,957.32
2016-02-15T09:10:14.520Z,957.32
2016-02-15T09:11:14.507Z,957.34
2016-02-15T09:12:14.510Z,957.37
2016-02-15T09:13:14.513Z,957.42
2016-02-15T09:14:14.516Z,957.47
2016-02-15T09:15:14.522Z,957.47
2016-02-15T09:16:14.509Z,957.5
2016-02-15T09:17:14.512Z,957.51
2016-02-15T09:18:14.514Z,957.52
2016-02-15T09:19:14.517Z,957.57
2016-02-15T09:20:14.520Z,957.6
2016-02-15T09:21:14.522Z,957.57
2016-02-15T09:22:14.509Z,957.58
2016-02-15T09:23:14.512Z,957.58
2016-02-15T09:24:14.514Z,957.64
2016-02-15T09:25:14.517Z,957.63
2016-02-15T09:26:14.520Z,957.69
2016-02-15T09:27:14.522Z,957.66
2016-02-15T09:28:14.510Z,957.66
2016-02-15T09:29:14.513Z,957.7
2016-02-15T09:30:14.515Z,957.72
2016-02-15T09:31:14.518Z,957.72
2016-02-15T09:32:14.521Z,957.76
2016-02-15T09:33:14.523Z,957.79
2016-02-15T09:34:14.507Z,957.8
2016-02-15T09:35:14.529Z,957.8
2016-02-15T09:36:14.513Z,957.83
2016-02-15T09:37:14.516Z,957.87
2016-02-15T09:38:14.518Z,957.87
2016-02-15T09:39:14.521Z,957.89
2016-02-15T09:40:14.523Z,957.92
2016-02-15T09:41:14.526Z,957.96
2016-02-15T09:42:14.514Z,957.94
2016-02-15T09:43:14.517Z,957.97
2016-02-15T09:44:14.519Z,958
2016-02-15T09:45:14.523Z,958.03
2016-02-15T09:46:14.525Z,958.03
2016-02-15T09:47:14.527Z,958.07
2016-02-15T09:48:14.531Z,958.07
2016-02-15T09:49:14.517Z,958.05
2016-02-15T09:50:14.535Z,958.07
2016-02-15T09:51:14.523Z,958.07
2016-02-15T09:52:14.525Z,958.14
2016-02-15T09:53:14.528Z,958.15
2016-02-15T09:54:14.531Z,958.21
2016-02-15T09:55:14.533Z,958.19
2016-02-15T09:56:14.536Z,958.24
2016-02-15T09:57:14.522Z,958.25
2016-02-15T09:58:14.525Z,958.28
2016-02-15T09:59:14.528Z,958.24
2016-02-15T10:00:14.530Z,958.29
2016-02-15T10:01:14.534Z,958.32
2016-02-15T10:02:14.536Z,958.32
2016-02-15T10:03:14.539Z,958.36
2016-02-15T10:04:14.541Z,958.36
2016-02-15T10:05:14.544Z,958.38
2016-02-15T10:06:14.532Z,958.36
2016-02-15T10:07:14.549Z,958.4
2016-02-15T10:08:14.537Z,958.43
2016-02-15T10:09:14.540Z,958.44
2016-02-15T10:10:14.543Z,958.48
2016-02-15T10:11:14.545Z,958.49
2016-02-15T10:12:14.548Z,958.48
2016-02-15T10:13:14.534Z,958.47
2016-02-15T10:14:14.537Z,958.53
2016-02-15T10:15:14.539Z,958.56
2016-02-15T10:16:14.543Z,958.56
2016-02-15T10:17:14.545Z,958.6
2016-02-15T10:18:14.548Z,958.63
2016-02-15T10:19:14.549Z,958.68
2016-02-15T10:20:14.522Z,958.67
2016-02-15T10:21:14.528Z,958.69
2016-02-15T10:22:14.502Z,958.72
2016-02-15T10:23:14.491Z,958.72
2016-02-15T10:24:14.482Z,958.79
2016-02-15T10:25:14.480Z,958.79
2016-02-15T10:26:14.479Z,958.84
2016-02-15T10:27:14.477Z,958.83
2016-02-15T10:28:14.459Z,958.88
2016-02-15T10:29:14.473Z,958.91
2016-02-15T10:30:14.459Z,958.95
2016-02-15T10:31:14.474Z,958.95
2016-02-15T10:32:14.460Z,958.95
2016-02-15T10:33:14.461Z,958.98
2016-02-15T10:34:14.462Z,959.02
2016-02-15T10:35:14.464Z,959.02
2016-02-15T10:36:14.466Z,959.04
2016-02-15T10:37:14.453Z,959.06
2016-02-15T10:38:14.471Z,959.1
2016-02-15T10:39:14.457Z,959.11
2016-02-15T10:40:14.460Z,959.1
2016-02-15T10:41:14.462Z,959.11
2016-02-15T10:42:14.465Z,959.12
2016-02-15T10:43:14.467Z,959.13
2016-02-15T10:44:14.454Z,959.14
2016-02-15T10:45:14.472Z,959.18
2016-02-15T10:46:14.474Z,959.15
2016-02-15T10:47:14.462Z,959.13
2016-02-15T10:48:14.465Z,959.13
2016-02-15T10:49:14.467Z,959.15
2016-02-15T10:50:14.471Z,959.16
2016-02-15T10:51:14.473Z,959.18
2016-02-15T10:52:14.475Z,959.18
2016-02-15T10:53:14.479Z,959.18
2016-02-15T10:54:14.465Z,959.15
2016-02-15T10:55:14.467Z,959.19
2016-02-15T10:56:14.487Z,959.18
2016-02-15T10:57:14.473Z,959.22
2016-02-15T10:58:14.476Z,959.2
2016-02-15T10:59:14.479Z,959.23
2016-02-15T11:00:14.481Z,959.22
2016-02-15T11:01:14.484Z,959.22
2016-02-15T11:02:14.486Z,959.25
2016-02-15T11:03:14.489Z,959.28
2016-02-15T11:04:14.476Z,959.28
2016-02-15T11:05:14.478Z,959.31
2016-02-15T11:06:14.482Z,959.32
2016-02-15T11:07:14.484Z,959.37
2016-02-15T11:08:14.486Z,959.36
2016-02-15T11:09:14.490Z,959.36
2016-02-15T11:10:14.492Z,959.39
2016-02-15T11:11:14.494Z,959.36
2016-02-15T11:12:14.498Z,959.39
2016-02-15T11:13:14.485Z,959.38
2016-02-15T11:14:14.503Z,959.39
2016-02-15T11:15:14.491Z,959.37
2016-02-15T11:16:14.493Z,959.38
2016-02-15T11:17:14.496Z,959.4
2016-02-15T11:18:14.498Z,959.41
2016-02-15T11:19:14.501Z,959.43
2016-02-15T11:20:14.504Z,959.42
2016-02-15T11:21:14.506Z,959.44
2016-02-15T11:22:14.510Z,959.47
2016-02-15T11:23:14.512Z,959.49
2016-02-15T11:24:14.529Z,959.53
2016-02-15T11:25:14.502Z,959.51
2016-02-15T11:26:14.504Z,959.54
2016-02-15T11:27:14.506Z,959.54
2016-02-15T11:28:14.510Z,959.55
2016-02-15T11:29:14.512Z,959.57
2016-02-15T11:30:14.515Z,959.56
2016-02-15T11:31:14.518Z,959.6
2016-02-15T11:32:14.520Z,959.6
2016-02-15T11:33:14.523Z,959.64
2016-02-15T11:34:14.509Z,959.65
2016-02-15T11:35:14.512Z,959.64
2016-02-15T11:36:14.515Z,959.64
2016-02-15T11:37:14.517Z,959.65
2016-02-15T11:38:14.521Z,959.69
2016-02-15T11:39:14.523Z,959.68
2016-02-15T11:40:14.525Z,959.65
2016-02-15T11:41:14.528Z,959.64
2016-02-15T11:42:14.516Z,959.64
2016-02-15T11:43:14.519Z,959.7
2016-02-15T11:44:14.521Z,959.7
2016-02-15T11:45:14.524Z,959.68
2016-02-15T11:46:14.527Z,959.73
2016-02-15T11:47:14.530Z,959.7
2016-02-15T11:48:14.532Z,959.75
2016-02-15T11:49:14.535Z,959.76
2016-02-15T11:50:14.538Z,959.77
2016-02-15T11:51:14.524Z,959.79
2016-02-15T11:52:14.543Z,959.79
2016-02-15T11:53:14.530Z,959.82
2016-02-15T11:54:14.595Z,959.75
2016-02-15T11:55:14.535Z,959.78
2016-02-15T11:56:14.538Z,959.83
2016-02-15T11:57:14.540Z,959.85
2016-02-15T11:58:14.543Z,959.85
2016-02-15T11:59:14.531Z,959.88
2016-02-15T12:00:14.533Z,959.88
2016-02-15T12:01:14.536Z,959.94
2016-02-15T12:02:14.539Z,959.92
2016-02-15T12:03:14.542Z,959.9
2016-02-15T12:04:14.544Z,959.91
2016-02-15T12:05:14.547Z,959.92
2016-02-15T12:06:14.534Z,959.95
2016-02-15T12:07:14.536Z,959.97
2016-02-15T12:08:14.539Z,960.03
2016-02-15T12:09:14.542Z,960.02
2016-02-15T12:10:14.544Z,960.05
2016-02-15T12:11:14.563Z,960.05
2016-02-15T12:12:14.550Z,960.09
2016-02-15T12:13:14.552Z,960.1
2016-02-15T12:14:14.539Z,960.13
2016-02-15T12:15:14.542Z,960.14
2016-02-15T12:16:14.545Z,960.14
2016-02-15T12:17:14.547Z,960.14
2016-02-15T12:18:14.550Z,960.19
2016-02-15T12:19:14.553Z,960.22
2016-02-15T12:20:14.556Z,960.25
2016-02-15T12:21:14.558Z,960.28
2016-02-15T12:22:14.546Z,960.28
2016-02-15T12:23:14.549Z,960.3
2016-02-15T12:24:14.551Z,960.33
2016-02-15T12:25:14.554Z,960.33
2016-02-15T12:26:14.557Z,960.36
2016-02-15T12:27:14.559Z,960.39
2016-02-15T12:28:14.577Z,960.42
2016-02-15T12:29:14.548Z,960.41
2016-02-15T12:30:14.551Z,960.44